createdAt,value
2018-07-25T00:00:08.701Z,24.60
2018-07-25T00:00:40.412Z,24.50
2018-07-25T00:01:12.124Z,24.50
2018-07-25T00:01:43.843Z,24.50
2018-07-25T00:02:15.562Z,24.50
2018-07-25T00:02:47.285Z,24.50
2018-07-25T00:03:18.983Z,24.50
2018-07-25T00:03:50.694Z,24.40
2018-07-25T00:04:22.413Z,24.40
2018-07-25T00:04:54.122Z,24.40
2018-07-25T00:05:25.838Z,24.40
2018-07-25T00:05:57.544Z,24.40
2018-07-25T00:06:29.266Z,24.40
2018-07-25T00:07:00.981Z,24.40
2018-07-25T00:07:32.696Z,24.40
2018-07-25T00:08:04.438Z,24.40
2018-07-25T00:08:36.163Z,24.30
2018-07-25T00:09:07.859Z,24.30
2018-07-25T00:09:39.575Z,24.30
2018-07-25T00:10:11.293Z,24.30
2018-07-25T00:10:43.013Z,24.30
2018-07-25T00:11:14.738Z,24.20
2018-07-25T00:11:46.479Z,24.20
2018-07-25T00:12:18.189Z,24.20
2018-07-25T00:12:49.949Z,24.20
2018-07-25T00:13:21.663Z,24.20
2018-07-25T00:13:53.384Z,24.10
2018-07-25T00:14:25.099Z,24.20
2018-07-25T00:14:56.809Z,24.10
2018-07-25T00:15:28.546Z,24.10
2018-07-25T00:16:00.253Z,24.10
2018-07-25T00:16:31.962Z,24.10
2018-07-25T00:17:03.682Z,24.10
2018-07-25T00:17:35.385Z,24.10
2018-07-25T00:18:07.101Z,24.10
2018-07-25T00:18:38.802Z,24.10
2018-07-25T00:19:10.512Z,24.10
2018-07-25T00:19:42.220Z,24.10
2018-07-25T00:20:13.943Z,24.10
2018-07-25T00:20:45.668Z,24.10
2018-07-25T00:21:17.393Z,24.10
2018-07-25T00:21:49.118Z,24.10
2018-07-25T00:22:20.826Z,24.10
2018-07-25T00:22:52.541Z,24.10
2018-07-25T00:23:24.249Z,24.10
2018-07-25T00:23:55.954Z,24.10
2018-07-25T00:24:27.667Z,24.10
2018-07-25T00:24:59.382Z,24.00
2018-07-25T00:25:31.109Z,24.00
2018-07-25T00:26:02.812Z,24.00
2018-07-25T00:26:34.518Z,24.00
2018-07-25T00:27:06.257Z,24.10
2018-07-25T00:27:37.969Z,24.10
2018-07-25T00:28:09.684Z,24.10
2018-07-25T00:28:41.397Z,24.10
2018-07-25T00:29:13.096Z,24.10
2018-07-25T00:29:44.809Z,24.10
2018-07-25T00:30:16.548Z,24.10
2018-07-25T00:30:48.250Z,24.10
2018-07-25T00:31:19.959Z,24.10
2018-07-25T00:31:51.666Z,24.10
2018-07-25T00:32:23.361Z,24.10
2018-07-25T00:32:55.123Z,24.10
2018-07-25T00:33:26.825Z,24.10
2018-07-25T00:33:58.565Z,24.10
2018-07-25T00:34:30.280Z,24.10
2018-07-25T00:35:02.014Z,24.10
2018-07-25T00:35:33.721Z,24.00
2018-07-25T00:36:05.454Z,24.00
2018-07-25T00:36:37.167Z,24.00
2018-07-25T00:37:08.903Z,24.00
2018-07-25T00:37:40.606Z,24.00
2018-07-25T00:38:12.320Z,24.00
2018-07-25T00:38:44.033Z,24.00
2018-07-25T00:39:15.734Z,24.10
2018-07-25T00:39:47.450Z,24.10
2018-07-25T00:40:19.157Z,24.10
2018-07-25T00:40:50.869Z,24.10
2018-07-25T00:41:22.577Z,24.20
2018-07-25T00:41:54.286Z,24.20
2018-07-25T00:42:26.017Z,24.20
2018-07-25T00:42:57.745Z,24.20
2018-07-25T00:43:29.480Z,24.20
2018-07-25T00:44:01.196Z,24.20
2018-07-25T00:44:32.913Z,24.20
2018-07-25T00:45:04.648Z,24.10
2018-07-25T00:45:36.347Z,24.10
2018-07-25T00:46:08.060Z,24.10
2018-07-25T00:46:39.779Z,24.10
2018-07-25T00:47:11.491Z,24.20
2018-07-25T00:47:43.196Z,24.20
2018-07-25T00:48:14.922Z,24.20
2018-07-25T00:48:46.650Z,24.30
2018-07-25T00:49:18.350Z,24.30
2018-07-25T00:49:50.059Z,24.40
2018-07-25T00:50:21.757Z,24.60
2018-07-25T00:50:53.468Z,24.50
2018-07-25T00:51:25.186Z,24.50
2018-07-25T00:51:56.898Z,24.50
2018-07-25T00:52:28.624Z,24.40
2018-07-25T00:53:00.334Z,24.30
2018-07-25T00:53:32.086Z,24.30
2018-07-25T00:54:03.797Z,24.30
2018-07-25T00:54:35.522Z,24.30
2018-07-25T00:55:07.226Z,24.20
2018-07-25T00:55:38.945Z,24.20
2018-07-25T00:56:10.666Z,24.20
2018-07-25T00:56:42.363Z,24.20
2018-07-25T00:57:14.077Z,24.10
2018-07-25T00:57:45.786Z,24.10
2018-07-25T00:58:17.485Z,24.10
2018-07-25T00:58:49.194Z,24.00
2018-07-25T00:59:20.901Z,24.00
2018-07-25T00:59:52.621Z,24.00
2018-07-25T01:00:24.342Z,24.00
2018-07-25T01:00:56.053Z,24.00
2018-07-25T01:01:27.774Z,24.00
2018-07-25T01:01:59.466Z,24.00
2018-07-25T01:02:31.173Z,24.00
2018-07-25T01:03:02.914Z,23.90
2018-07-25T01:03:34.644Z,24.00
2018-07-25T01:04:06.361Z,24.00
2018-07-25T01:04:38.068Z,24.00
2018-07-25T01:05:09.771Z,24.00
2018-07-25T01:05:41.481Z,24.00
2018-07-25T01:06:13.192Z,24.00
2018-07-25T01:06:44.897Z,24.00
2018-07-25T01:07:16.617Z,24.00
2018-07-25T01:07:48.323Z,24.00
2018-07-25T01:08:20.045Z,24.10
2018-07-25T01:08:51.781Z,24.10
2018-07-25T01:09:23.492Z,24.00
2018-07-25T01:09:55.231Z,24.10
2018-07-25T01:10:26.911Z,24.10
2018-07-25T01:10:58.617Z,24.10
2018-07-25T01:11:30.326Z,24.10
2018-07-25T01:12:02.031Z,24.20
2018-07-25T01:12:33.741Z,24.20
2018-07-25T01:13:05.462Z,24.30
2018-07-25T01:13:37.190Z,24.30
2018-07-25T01:14:08.932Z,24.30
2018-07-25T01:14:40.602Z,24.30
2018-07-25T01:15:12.331Z,24.30
2018-07-25T01:15:44.039Z,24.30
2018-07-25T01:16:15.756Z,24.40
2018-07-25T01:16:47.445Z,24.40
2018-07-25T01:17:19.150Z,24.40
2018-07-25T01:17:50.868Z,24.40
2018-07-25T01:18:22.583Z,24.40
2018-07-25T01:18:54.314Z,24.40
2018-07-25T01:19:26.052Z,24.40
2018-07-25T01:19:57.753Z,24.50
2018-07-25T01:20:29.466Z,24.50
2018-07-25T01:21:01.186Z,24.40
2018-07-25T01:21:32.901Z,24.40
2018-07-25T01:22:04.613Z,24.40
2018-07-25T01:22:36.318Z,24.30
2018-07-25T01:23:08.022Z,24.30
2018-07-25T01:23:39.737Z,24.30
2018-07-25T01:24:11.441Z,24.30
2018-07-25T01:24:43.142Z,24.20
2018-07-25T01:25:14.855Z,24.20
2018-07-25T01:25:46.571Z,24.20
2018-07-25T01:26:18.302Z,24.10
2018-07-25T01:26:50.008Z,24.10
2018-07-25T01:27:21.744Z,24.10
2018-07-25T01:27:53.440Z,24.10
2018-07-25T01:28:25.153Z,24.20
2018-07-25T01:28:56.884Z,24.20
2018-07-25T01:29:28.601Z,24.20
2018-07-25T01:30:00.318Z,24.30
2018-07-25T01:30:32.012Z,24.30
2018-07-25T01:31:03.723Z,24.40
2018-07-25T01:32:07.452Z,24.50
2018-07-25T01:32:39.189Z,24.50
2018-07-25T01:33:10.890Z,24.50
2018-07-25T01:33:42.597Z,24.50
2018-07-25T01:34:14.309Z,24.40
2018-07-25T01:34:46.028Z,24.40
2018-07-25T01:35:17.741Z,24.40
2018-07-25T01:35:49.453Z,24.40
2018-07-25T01:36:21.176Z,24.40
2018-07-25T01:36:52.877Z,24.40
2018-07-25T01:37:24.582Z,24.30
2018-07-25T01:37:56.305Z,24.40
2018-07-25T01:38:28.024Z,24.30
2018-07-25T01:38:59.750Z,24.30
2018-07-25T01:39:31.461Z,24.30
2018-07-25T01:40:03.163Z,24.30
2018-07-25T01:40:34.871Z,24.40
2018-07-25T01:41:06.588Z,24.30
2018-07-25T01:41:38.294Z,24.30
2018-07-25T01:42:09.997Z,24.30
2018-07-25T01:42:41.720Z,24.40
2018-07-25T01:43:13.415Z,24.40
2018-07-25T01:43:45.125Z,24.40
2018-07-25T01:44:16.844Z,24.40
2018-07-25T01:44:48.552Z,24.40
2018-07-25T01:45:20.251Z,24.40
2018-07-25T01:45:51.970Z,24.40
2018-07-25T01:46:23.813Z,24.40
2018-07-25T01:46:55.517Z,24.40
2018-07-25T01:47:27.214Z,24.40
2018-07-25T01:47:58.920Z,24.30
2018-07-25T01:48:30.623Z,24.30
2018-07-25T01:49:02.339Z,24.30
2018-07-25T01:49:34.041Z,24.30
2018-07-25T01:50:05.750Z,24.30
2018-07-25T01:50:37.457Z,24.20
2018-07-25T01:51:09.219Z,24.20
2018-07-25T01:51:40.928Z,24.20
2018-07-25T01:52:12.665Z,24.10
2018-07-25T01:52:44.387Z,24.20
2018-07-25T01:53:16.096Z,24.20
2018-07-25T01:53:47.795Z,24.20
2018-07-25T01:54:19.533Z,24.20
2018-07-25T01:54:51.228Z,24.30
2018-07-25T01:55:22.951Z,24.30
2018-07-25T01:55:54.650Z,24.30
2018-07-25T01:56:26.366Z,24.40
2018-07-25T01:56:58.074Z,24.40
2018-07-25T01:57:29.780Z,24.40
2018-07-25T01:58:01.484Z,24.40
2018-07-25T01:58:33.205Z,24.40
2018-07-25T01:59:04.908Z,24.40
2018-07-25T01:59:36.637Z,24.50
2018-07-25T02:00:08.360Z,24.50
2018-07-25T02:00:40.063Z,24.40
2018-07-25T02:01:11.769Z,24.30
2018-07-25T02:01:43.478Z,24.20
2018-07-25T02:02:15.197Z,24.10
2018-07-25T02:02:46.912Z,24.10
2018-07-25T02:03:18.618Z,24.00
2018-07-25T02:03:50.343Z,24.10
2018-07-25T02:04:22.067Z,24.10
2018-07-25T02:04:53.784Z,24.10
2018-07-25T02:05:25.497Z,24.10
2018-07-25T02:05:57.198Z,24.10
2018-07-25T02:06:28.907Z,24.20
2018-07-25T02:07:00.626Z,24.20
2018-07-25T02:07:32.322Z,24.20
2018-07-25T02:08:04.056Z,24.20
2018-07-25T02:08:35.741Z,24.20
2018-07-25T02:09:07.452Z,24.30
2018-07-25T02:09:39.173Z,24.40
2018-07-25T02:10:10.885Z,24.40
2018-07-25T02:10:42.590Z,24.50
2018-07-25T02:11:14.300Z,24.50
2018-07-25T02:11:46.020Z,24.50
2018-07-25T02:12:17.727Z,24.50
2018-07-25T02:13:21.466Z,24.50
2018-07-25T02:13:53.197Z,24.50
2018-07-25T02:14:24.942Z,24.40
2018-07-25T02:14:56.681Z,24.40
2018-07-25T02:15:28.438Z,24.30
2018-07-25T02:16:00.115Z,24.30
2018-07-25T02:16:31.867Z,24.20
2018-07-25T02:17:03.558Z,24.20
2018-07-25T02:17:35.274Z,24.10
2018-07-25T02:18:06.997Z,24.10
2018-07-25T02:18:38.702Z,24.10
2018-07-25T02:19:10.407Z,24.10
2018-07-25T02:19:42.112Z,24.10
2018-07-25T02:20:13.827Z,24.00
2018-07-25T02:20:45.526Z,24.00
2018-07-25T02:21:17.239Z,24.00
2018-07-25T02:21:48.954Z,23.90
2018-07-25T02:22:20.677Z,23.90
2018-07-25T02:22:52.392Z,23.90
2018-07-25T02:23:24.089Z,23.80
2018-07-25T02:23:55.814Z,23.80
2018-07-25T02:24:27.530Z,23.80
2018-07-25T02:24:59.258Z,23.80
2018-07-25T02:25:30.976Z,23.80
2018-07-25T02:26:02.679Z,23.80
2018-07-25T02:26:34.393Z,23.80
2018-07-25T02:27:06.109Z,23.70
2018-07-25T02:27:37.814Z,23.80
2018-07-25T02:28:09.525Z,23.80
2018-07-25T02:28:41.236Z,23.80
2018-07-25T02:29:12.941Z,23.80
2018-07-25T02:29:44.653Z,23.80
2018-07-25T02:30:16.358Z,23.90
2018-07-25T02:30:48.087Z,23.90
2018-07-25T02:31:19.794Z,23.90
2018-07-25T02:31:51.508Z,23.90
2018-07-25T02:32:23.234Z,24.00
2018-07-25T02:32:54.926Z,24.00
2018-07-25T02:33:26.641Z,24.00
2018-07-25T02:33:58.350Z,24.00
2018-07-25T02:34:30.060Z,24.10
2018-07-25T02:35:01.773Z,24.10
2018-07-25T02:35:33.482Z,24.10
2018-07-25T02:36:05.231Z,24.10
2018-07-25T02:36:36.947Z,24.20
2018-07-25T02:37:08.646Z,24.20
2018-07-25T02:37:40.369Z,24.10
2018-07-25T02:38:12.099Z,24.10
2018-07-25T02:38:43.802Z,24.10
2018-07-25T02:39:15.522Z,24.10
2018-07-25T02:39:47.234Z,24.10
2018-07-25T02:40:18.949Z,24.10
2018-07-25T02:40:50.658Z,24.10
2018-07-25T02:41:22.432Z,24.10
2018-07-25T02:41:54.156Z,24.10
2018-07-25T02:42:25.857Z,24.10
2018-07-25T02:42:57.568Z,24.10
2018-07-25T02:43:29.290Z,24.10
2018-07-25T02:44:00.994Z,24.10
2018-07-25T02:44:32.715Z,24.10
2018-07-25T02:45:04.424Z,24.10
2018-07-25T02:45:36.134Z,24.10
2018-07-25T02:46:07.837Z,24.10
2018-07-25T02:46:39.555Z,24.10
2018-07-25T02:47:11.262Z,24.20
2018-07-25T02:47:43.061Z,24.20
2018-07-25T02:48:14.774Z,24.20
2018-07-25T02:48:46.485Z,24.20
2018-07-25T02:49:18.185Z,24.20
2018-07-25T02:49:49.919Z,24.10
2018-07-25T02:50:21.629Z,24.10
2018-07-25T02:50:53.340Z,24.10
2018-07-25T02:51:25.066Z,24.00
2018-07-25T02:51:56.817Z,24.00
2018-07-25T02:52:28.534Z,24.00
2018-07-25T02:53:00.263Z,24.00
2018-07-25T02:53:31.956Z,23.90
2018-07-25T02:54:03.663Z,23.90
2018-07-25T02:54:35.410Z,24.00
2018-07-25T02:55:07.130Z,23.90
2018-07-25T02:55:38.831Z,23.90
2018-07-25T02:56:10.561Z,24.00
2018-07-25T02:56:42.323Z,24.00
2018-07-25T02:57:13.980Z,24.00
2018-07-25T02:57:45.699Z,24.00
2018-07-25T02:58:17.409Z,24.00
2018-07-25T02:58:49.109Z,24.00
2018-07-25T02:59:20.833Z,24.00
2018-07-25T02:59:52.890Z,23.90
2018-07-25T03:00:24.939Z,23.90
2018-07-25T03:00:56.932Z,23.90
2018-07-25T03:01:28.698Z,23.90
2018-07-25T03:02:00.420Z,23.80
2018-07-25T03:02:32.161Z,23.80
2018-07-25T03:03:03.855Z,23.80
2018-07-25T03:03:35.561Z,23.80
2018-07-25T03:04:07.266Z,23.80
2018-07-25T03:04:38.972Z,23.80
2018-07-25T03:05:10.688Z,23.80
2018-07-25T03:05:42.414Z,23.80
2018-07-25T03:06:14.132Z,23.80
2018-07-25T03:06:45.835Z,23.80
2018-07-25T03:07:17.554Z,23.80
2018-07-25T03:07:49.265Z,23.80
2018-07-25T03:08:21.146Z,23.80
2018-07-25T03:08:52.882Z,23.80
2018-07-25T03:09:24.534Z,23.90
2018-07-25T03:09:56.239Z,23.90
2018-07-25T03:10:27.947Z,23.90
2018-07-25T03:10:59.696Z,23.90
2018-07-25T03:11:31.438Z,23.90
2018-07-25T03:12:03.161Z,23.90
2018-07-25T03:12:34.862Z,23.90
2018-07-25T03:13:06.574Z,24.00
2018-07-25T03:13:38.277Z,24.00
2018-07-25T03:14:09.994Z,24.00
2018-07-25T03:14:41.703Z,24.00
2018-07-25T03:15:13.430Z,24.00
2018-07-25T03:15:45.134Z,24.00
2018-07-25T03:16:16.851Z,24.00
2018-07-25T03:16:48.613Z,24.00
2018-07-25T03:17:20.275Z,24.00
2018-07-25T03:17:52.009Z,24.00
2018-07-25T03:18:23.692Z,24.00
2018-07-25T03:18:55.403Z,24.00
2018-07-25T03:19:27.120Z,24.00
2018-07-25T03:19:58.816Z,24.00
2018-07-25T03:20:30.551Z,24.00
2018-07-25T03:21:02.266Z,23.90
2018-07-25T03:21:33.975Z,23.90
2018-07-25T03:22:05.681Z,23.90
2018-07-25T03:22:37.410Z,23.90
2018-07-25T03:23:09.104Z,24.00
2018-07-25T03:23:40.839Z,23.90
2018-07-25T03:24:12.543Z,23.90
2018-07-25T03:24:44.281Z,23.90
2018-07-25T03:25:15.989Z,23.90
2018-07-25T03:25:47.712Z,23.90
2018-07-25T03:26:19.421Z,23.80
2018-07-25T03:26:51.125Z,23.80
2018-07-25T03:27:22.832Z,23.80
2018-07-25T03:27:54.545Z,23.80
2018-07-25T03:28:26.264Z,23.80
2018-07-25T03:28:57.974Z,23.80
2018-07-25T03:29:29.681Z,23.80
2018-07-25T03:30:01.431Z,23.80
2018-07-25T03:30:33.125Z,23.80
2018-07-25T03:31:04.833Z,23.90
2018-07-25T03:31:36.625Z,23.90
2018-07-25T03:32:08.290Z,23.90
2018-07-25T03:32:40.014Z,24.00
2018-07-25T03:33:11.706Z,24.10
2018-07-25T03:33:43.434Z,24.10
2018-07-25T03:34:15.136Z,24.10
2018-07-25T03:34:46.838Z,24.10
2018-07-25T03:35:18.575Z,24.20
2018-07-25T03:35:50.287Z,24.30
2018-07-25T03:36:21.990Z,24.40
2018-07-25T03:36:53.742Z,24.50
2018-07-25T03:37:25.441Z,24.50
2018-07-25T03:37:57.138Z,24.50
2018-07-25T03:38:28.849Z,24.60
2018-07-25T03:39:00.570Z,24.60
2018-07-25T03:39:32.282Z,24.60
2018-07-25T03:40:04.010Z,24.70
2018-07-25T03:40:35.725Z,24.60
2018-07-25T03:41:07.440Z,24.60
2018-07-25T03:41:39.149Z,24.50
2018-07-25T03:42:10.864Z,24.60
2018-07-25T03:42:42.575Z,24.60
2018-07-25T03:43:14.273Z,24.50
2018-07-25T03:43:45.982Z,24.50
2018-07-25T03:44:17.704Z,24.50
2018-07-25T03:44:49.421Z,24.40
2018-07-25T03:45:21.151Z,24.40
2018-07-25T03:45:52.887Z,24.30
2018-07-25T03:46:24.611Z,24.30
2018-07-25T03:46:56.325Z,24.40
2018-07-25T03:47:28.025Z,24.40
2018-07-25T03:47:59.730Z,24.40
2018-07-25T03:48:31.445Z,24.30
2018-07-25T03:49:03.165Z,24.20
2018-07-25T03:49:34.846Z,24.20
2018-07-25T03:50:06.571Z,24.20
2018-07-25T03:50:38.299Z,24.20
2018-07-25T03:51:10.003Z,24.20
2018-07-25T03:51:41.733Z,24.20
2018-07-25T03:52:13.446Z,24.10
2018-07-25T03:52:45.163Z,24.20
2018-07-25T03:53:16.888Z,24.20
2018-07-25T03:53:48.590Z,24.30
2018-07-25T03:54:20.306Z,24.30
2018-07-25T03:54:52.021Z,24.30
2018-07-25T03:55:23.728Z,24.30
2018-07-25T03:55:55.455Z,24.40
2018-07-25T03:56:27.173Z,24.40
2018-07-25T03:56:58.888Z,24.40
2018-07-25T03:57:30.613Z,24.40
2018-07-25T03:58:02.328Z,24.50
2018-07-25T03:58:34.047Z,24.50
2018-07-25T03:59:05.760Z,24.50
2018-07-25T03:59:37.468Z,24.50
2018-07-25T04:00:09.181Z,24.50
2018-07-25T04:00:40.903Z,24.50
2018-07-25T04:01:12.621Z,24.40
2018-07-25T04:01:44.344Z,24.30
2018-07-25T04:02:16.070Z,24.30
2018-07-25T04:02:47.791Z,24.30
2018-07-25T04:03:19.486Z,24.20
2018-07-25T04:03:51.204Z,24.30
2018-07-25T04:04:22.917Z,24.20
2018-07-25T04:04:54.640Z,24.20
2018-07-25T04:05:26.374Z,24.30
2018-07-25T04:05:58.083Z,24.20
2018-07-25T04:06:29.794Z,24.20
2018-07-25T04:07:01.514Z,24.30
2018-07-25T04:07:33.219Z,24.30
2018-07-25T04:08:04.952Z,24.40
2018-07-25T04:08:36.653Z,24.50
2018-07-25T04:09:08.432Z,24.50
2018-07-25T04:09:40.102Z,24.60
2018-07-25T04:10:11.795Z,24.60
2018-07-25T04:10:43.546Z,24.50
2018-07-25T04:11:15.261Z,24.40
2018-07-25T04:11:46.965Z,24.40
2018-07-25T04:12:18.682Z,24.30
2018-07-25T04:12:50.388Z,24.30
2018-07-25T04:13:22.094Z,24.20
2018-07-25T04:13:53.821Z,24.20
2018-07-25T04:14:25.538Z,24.10
2018-07-25T04:14:57.246Z,24.20
2018-07-25T04:16:00.946Z,24.10
2018-07-25T04:16:32.664Z,24.00
2018-07-25T04:17:04.388Z,24.00
2018-07-25T04:17:36.126Z,23.90
2018-07-25T04:18:07.837Z,23.90
2018-07-25T04:18:39.548Z,24.00
2018-07-25T04:19:11.266Z,24.00
2018-07-25T04:19:42.975Z,24.00
2018-07-25T04:20:14.686Z,23.90
2018-07-25T04:20:46.401Z,23.80
2018-07-25T04:21:18.124Z,23.70
2018-07-25T04:21:49.839Z,23.70
2018-07-25T04:22:21.557Z,23.60
2018-07-25T04:22:53.290Z,23.50
2018-07-25T04:23:25.005Z,23.50
2018-07-25T04:23:56.718Z,23.40
2018-07-25T04:24:28.433Z,23.40
2018-07-25T04:25:00.139Z,23.30
2018-07-25T04:25:31.858Z,23.30
2018-07-25T04:26:03.584Z,23.20
2018-07-25T04:26:35.292Z,23.20
2018-07-25T04:27:07.017Z,23.10
2018-07-25T04:27:38.773Z,23.10
2018-07-25T04:28:10.482Z,23.10
2018-07-25T04:28:42.218Z,23.10
2018-07-25T04:29:13.935Z,23.10
2018-07-25T04:29:45.642Z,23.10
2018-07-25T04:30:17.394Z,23.10
2018-07-25T04:30:49.132Z,23.10
2018-07-25T04:31:20.846Z,23.00
2018-07-25T04:31:52.555Z,23.00
2018-07-25T04:32:24.269Z,23.00
2018-07-25T04:32:55.992Z,23.00
2018-07-25T04:33:27.763Z,22.90
2018-07-25T04:33:59.450Z,22.90
2018-07-25T04:34:31.172Z,22.90
2018-07-25T04:35:02.860Z,22.90
2018-07-25T04:35:34.574Z,22.90
2018-07-25T04:36:06.345Z,22.90
2018-07-25T04:36:38.038Z,22.90
2018-07-25T04:37:09.746Z,22.90
2018-07-25T04:37:41.560Z,22.90
2018-07-25T04:38:13.261Z,22.90
2018-07-25T04:38:44.982Z,22.90
2018-07-25T04:39:16.709Z,22.90
2018-07-25T04:39:48.435Z,22.80
2018-07-25T04:40:20.138Z,22.80
2018-07-25T04:40:51.851Z,22.90
2018-07-25T04:41:23.588Z,22.90
2018-07-25T04:42:27.338Z,22.90
2018-07-25T04:42:59.058Z,22.80
2018-07-25T04:43:30.797Z,22.90
2018-07-25T04:44:02.508Z,22.90
2018-07-25T04:44:34.246Z,22.90
2018-07-25T04:45:05.998Z,23.00
2018-07-25T04:45:37.726Z,23.00
2018-07-25T04:46:09.515Z,23.10
2018-07-25T04:46:41.216Z,23.10
2018-07-25T04:47:12.889Z,23.20
2018-07-25T04:47:44.622Z,23.20
2018-07-25T04:48:16.330Z,23.30
2018-07-25T04:48:48.052Z,23.20
2018-07-25T04:49:19.769Z,23.30
2018-07-25T04:49:51.482Z,23.30
2018-07-25T04:50:23.209Z,23.30
2018-07-25T04:50:54.938Z,23.30
2018-07-25T04:51:26.666Z,23.40
2018-07-25T04:51:58.389Z,23.30
2018-07-25T04:52:30.120Z,23.40
2018-07-25T04:53:01.805Z,23.40
2018-07-25T04:53:33.533Z,23.40
2018-07-25T04:54:05.252Z,23.50
2018-07-25T04:54:36.989Z,23.40
2018-07-25T04:55:08.686Z,23.50
2018-07-25T04:55:40.399Z,23.50
2018-07-25T04:56:12.198Z,23.50
2018-07-25T04:56:43.855Z,23.50
2018-07-25T04:57:15.579Z,23.50
2018-07-25T04:57:47.305Z,23.50
2018-07-25T04:58:19.059Z,23.50
2018-07-25T04:58:50.771Z,23.50
2018-07-25T04:59:22.470Z,23.50
2018-07-25T04:59:54.183Z,23.50
2018-07-25T05:00:25.890Z,23.50
2018-07-25T05:00:57.599Z,23.50
2018-07-25T05:01:29.339Z,23.50
2018-07-25T05:02:01.078Z,23.50
2018-07-25T05:02:32.829Z,23.50
2018-07-25T05:03:04.536Z,23.50
2018-07-25T05:03:36.238Z,23.50
2018-07-25T05:04:07.970Z,23.50
2018-07-25T05:04:39.669Z,23.50
2018-07-25T05:05:11.380Z,23.50
2018-07-25T05:05:43.090Z,23.50
2018-07-25T05:06:14.862Z,23.40
2018-07-25T05:06:46.621Z,23.50
2018-07-25T05:07:18.360Z,23.50
2018-07-25T05:07:50.072Z,23.50
2018-07-25T05:08:21.783Z,23.40
2018-07-25T05:08:53.594Z,23.50
2018-07-25T05:09:25.267Z,23.50
2018-07-25T05:09:57.005Z,23.50
2018-07-25T05:10:28.719Z,23.50
2018-07-25T05:11:00.432Z,23.50
2018-07-25T05:11:32.173Z,23.50
2018-07-25T05:12:03.879Z,23.50
2018-07-25T05:12:35.614Z,23.50
2018-07-25T05:13:07.299Z,23.40
2018-07-25T05:13:39.008Z,23.50
2018-07-25T05:14:10.717Z,23.50
2018-07-25T05:14:42.450Z,23.50
2018-07-25T05:15:14.179Z,23.50
2018-07-25T05:15:45.891Z,23.50
2018-07-25T05:16:17.598Z,23.50
2018-07-25T05:16:49.364Z,23.50
2018-07-25T05:17:21.088Z,23.50
2018-07-25T05:17:52.861Z,23.50
2018-07-25T05:18:24.502Z,23.50
2018-07-25T05:18:56.224Z,23.60
2018-07-25T05:19:27.928Z,23.60
2018-07-25T05:19:59.625Z,23.50
2018-07-25T05:20:31.338Z,23.50
2018-07-25T05:21:03.051Z,23.50
2018-07-25T05:21:34.757Z,23.50
2018-07-25T05:22:06.470Z,23.40
2018-07-25T05:22:38.185Z,23.40
2018-07-25T05:23:09.906Z,23.40
2018-07-25T05:23:41.591Z,23.40
2018-07-25T05:24:13.292Z,23.40
2018-07-25T05:24:45.005Z,23.40
2018-07-25T05:25:16.722Z,23.40
2018-07-25T05:25:48.425Z,23.50
2018-07-25T05:26:20.144Z,23.40
2018-07-25T05:26:51.848Z,23.40
2018-07-25T05:27:23.565Z,23.40
2018-07-25T05:27:55.282Z,23.40
2018-07-25T05:28:26.997Z,23.40
2018-07-25T05:28:58.698Z,23.40
2018-07-25T05:29:30.416Z,23.40
2018-07-25T05:30:02.124Z,23.40
2018-07-25T05:30:33.834Z,23.40
2018-07-25T05:31:05.552Z,23.40
2018-07-25T05:31:37.650Z,23.30
2018-07-25T05:32:09.359Z,23.30
2018-07-25T05:32:41.081Z,23.40
2018-07-25T05:33:12.802Z,23.30
2018-07-25T05:33:44.545Z,23.30
2018-07-25T05:34:16.263Z,23.40
2018-07-25T05:34:47.964Z,23.40
2018-07-25T05:35:19.689Z,23.40
2018-07-25T05:35:51.406Z,23.40
2018-07-25T05:36:23.125Z,23.40
2018-07-25T05:36:54.843Z,23.40
2018-07-25T05:37:26.542Z,23.30
2018-07-25T05:37:58.253Z,23.30
2018-07-25T05:38:29.968Z,23.30
2018-07-25T05:39:01.681Z,23.30
2018-07-25T05:39:33.386Z,23.30
2018-07-25T05:40:05.082Z,23.30
2018-07-25T05:40:36.806Z,23.30
2018-07-25T05:41:08.512Z,23.30
2018-07-25T05:41:40.210Z,23.30
2018-07-25T05:42:12.241Z,23.30
2018-07-25T05:42:43.968Z,23.30
2018-07-25T05:43:15.691Z,23.30
2018-07-25T05:43:47.414Z,23.30
2018-07-25T05:44:19.117Z,23.30
2018-07-25T05:44:50.880Z,23.40
2018-07-25T05:45:22.657Z,23.40
2018-07-25T05:45:54.362Z,23.30
2018-07-25T05:46:26.075Z,23.30
2018-07-25T05:46:57.795Z,23.40
2018-07-25T05:47:29.502Z,23.40
2018-07-25T05:48:01.221Z,23.40
2018-07-25T05:48:33.112Z,23.40
2018-07-25T05:49:04.821Z,23.40
2018-07-25T05:49:36.544Z,23.40
2018-07-25T05:50:08.262Z,23.40
2018-07-25T05:50:39.951Z,23.40
2018-07-25T05:51:11.673Z,23.40
2018-07-25T05:51:43.377Z,23.40
2018-07-25T05:52:15.090Z,23.40
2018-07-25T05:52:46.804Z,23.40
2018-07-25T05:53:18.509Z,23.30
2018-07-25T05:53:50.218Z,23.30
2018-07-25T05:54:21.938Z,23.30
2018-07-25T05:54:53.641Z,23.40
2018-07-25T05:55:25.345Z,23.30
2018-07-25T05:55:57.050Z,23.40
2018-07-25T05:56:28.769Z,23.30
2018-07-25T05:57:00.497Z,23.30
2018-07-25T05:57:32.215Z,23.30
2018-07-25T05:58:03.933Z,23.30
2018-07-25T05:58:35.660Z,23.30
2018-07-25T05:59:07.373Z,23.40
2018-07-25T05:59:39.077Z,23.30
2018-07-25T06:00:10.785Z,23.40
2018-07-25T06:00:42.510Z,23.30
2018-07-25T06:01:14.206Z,23.40
2018-07-25T06:01:45.913Z,23.40
2018-07-25T06:02:17.630Z,23.40
2018-07-25T06:02:49.395Z,23.40
2018-07-25T06:03:21.067Z,23.40
2018-07-25T06:03:52.765Z,23.40
2018-07-25T06:04:24.489Z,23.50
2018-07-25T06:04:56.183Z,23.40
2018-07-25T06:05:27.929Z,23.50
2018-07-25T06:05:59.627Z,23.40
2018-07-25T06:06:31.311Z,23.50
2018-07-25T06:07:03.058Z,23.50
2018-07-25T06:07:34.779Z,23.50
2018-07-25T06:08:06.474Z,23.50
2018-07-25T06:08:38.198Z,23.50
2018-07-25T06:09:09.895Z,23.50
2018-07-25T06:09:41.601Z,23.50
2018-07-25T06:10:13.317Z,23.60
2018-07-25T06:10:45.038Z,23.50
2018-07-25T06:11:16.738Z,23.50
2018-07-25T06:11:48.445Z,23.50
2018-07-25T06:12:20.164Z,23.50
2018-07-25T06:12:51.933Z,23.50
2018-07-25T06:13:23.617Z,23.50
2018-07-25T06:13:55.324Z,23.50
2018-07-25T06:14:27.031Z,23.60
2018-07-25T06:14:58.756Z,23.60
2018-07-25T06:15:30.455Z,23.50
2018-07-25T06:16:02.185Z,23.50
2018-07-25T06:16:33.889Z,23.50
2018-07-25T06:17:05.635Z,23.50
2018-07-25T06:17:37.371Z,23.50
2018-07-25T06:18:09.078Z,23.60
2018-07-25T06:18:40.836Z,23.60
2018-07-25T06:19:12.580Z,23.60
2018-07-25T06:19:44.278Z,23.60
2018-07-25T06:20:15.996Z,23.60
2018-07-25T06:20:47.694Z,23.60
2018-07-25T06:21:19.416Z,23.60
2018-07-25T06:21:51.131Z,23.60
2018-07-25T06:22:22.850Z,23.60
2018-07-25T06:22:54.566Z,23.50
2018-07-25T06:23:26.291Z,23.50
2018-07-25T06:23:57.997Z,23.50
2018-07-25T06:24:29.705Z,23.50
2018-07-25T06:25:01.448Z,23.50
2018-07-25T06:25:33.178Z,23.60
2018-07-25T06:26:05.001Z,23.60
2018-07-25T06:26:36.578Z,23.60
2018-07-25T06:27:08.291Z,23.50
2018-07-25T06:27:40.001Z,23.50
2018-07-25T06:28:11.724Z,23.50
2018-07-25T06:28:43.438Z,23.50
2018-07-25T06:29:15.145Z,23.50
2018-07-25T06:29:46.862Z,23.50
2018-07-25T06:30:18.572Z,23.50
2018-07-25T06:30:50.367Z,23.50
2018-07-25T06:31:22.078Z,23.50
2018-07-25T06:31:53.777Z,23.50
2018-07-25T06:32:25.536Z,23.60
2018-07-25T06:32:57.216Z,23.50
2018-07-25T06:33:28.981Z,23.50
2018-07-25T06:34:00.690Z,23.60
2018-07-25T06:34:32.447Z,23.60
2018-07-25T06:35:04.166Z,23.60
2018-07-25T06:35:35.901Z,23.60
2018-07-25T06:36:07.610Z,23.60
2018-07-25T06:36:39.310Z,23.60
2018-07-25T06:37:11.033Z,23.60
2018-07-25T06:37:42.741Z,23.60
2018-07-25T06:38:14.470Z,23.60
2018-07-25T06:38:46.181Z,23.60
2018-07-25T06:39:17.889Z,23.70
2018-07-25T06:39:49.598Z,23.60
2018-07-25T06:40:21.319Z,23.70
2018-07-25T06:40:53.021Z,23.60
2018-07-25T06:41:24.763Z,23.60
2018-07-25T06:41:56.483Z,23.60
2018-07-25T06:42:28.216Z,23.60
2018-07-25T06:42:59.961Z,23.60
2018-07-25T06:43:31.684Z,23.60
2018-07-25T06:44:03.400Z,23.70
2018-07-25T06:44:35.112Z,23.60
2018-07-25T06:45:06.833Z,23.60
2018-07-25T06:45:38.550Z,23.70
2018-07-25T06:46:10.285Z,23.70
2018-07-25T06:46:41.990Z,23.70
2018-07-25T06:47:13.701Z,23.70
2018-07-25T06:47:45.487Z,23.70
2018-07-25T06:48:17.202Z,23.70
2018-07-25T06:48:48.912Z,23.70
2018-07-25T06:49:20.617Z,23.70
2018-07-25T06:49:52.314Z,23.70
2018-07-25T06:50:24.033Z,23.70